Time;durP1;ratioP1;P1;durP2;ratioP2;P2;SDS_P1;SDS_P2;PMS_P1;PMS_P2;Temp;Humidity;BMP_temperature;BMP_pressure;BME280_temperature;BME280_humidity;BME280_pressure;Samples;Min_cycle;Max_cycle;Signal;HPM_P1;HPM_P2
2023/05/02 00:00:07;;;;;;;;;;;;;;;10.35;61.14;101515.88;4990927;28;19973;-92
2023/05/02 00:02:35;;;;;;;;;;;;;;;10.27;61.28;101523.72;4999109;28;19929;-90
2023/05/02 00:05:06;;;;;;;;;;;;;;;10.12;61.83;101511.69;4993857;28;19922;-91
2023/05/02 00:07:33;;;;;;;;;;;;;;;9.99;62.34;101514.59;4994016;28;19998;-92
2023/05/02 00:10:01;;;;;;;;;;;;;;;9.94;62.55;101519.53;4994422;28;19926;-92
2023/05/02 00:12:34;;;;;;;;;;;;;;;10.00;62.29;101523.53;4991048;28;19926;-91
2023/05/02 00:15:05;;;;;;;;;;;;;;;9.71;63.26;101525.09;4986512;28;19922;-92
2023/05/02 00:17:32;;;;;;;;;;;;;;;9.60;63.60;101522.50;4994085;28;19941;-91
2023/05/02 00:20:03;;;;;;;;;;;;;;;9.70;63.24;101527.91;4990561;28;19992;-90
2023/05/02 00:22:30;;;;;;;;;;;;;;;9.77;63.24;101530.94;4981103;28;19929;-92
2023/05/02 00:25:07;;;;;;;;;;;;;;;9.66;63.50;101530.00;4992083;28;19933;-93
2023/05/02 00:27:56;;;;;;;;;;;;;;;9.57;63.54;101524.59;4988434;28;19933;-92
2023/05/02 00:30:45;;;;;;;;;;;;;;;9.62;63.48;101531.28;4987438;28;20468;-93
2023/05/02 00:33:13;;;;;;;;;;;;;;;9.45;63.85;101538.09;5008319;28;19922;-91
2023/05/02 00:35:40;;;;;;;;;;;;;;;9.47;63.97;101535.28;4981281;28;19921;-92
2023/05/02 00:38:07;;;;;;;;;;;;;;;9.50;63.54;101533.19;4994059;28;20433;-92
2023/05/02 00:40:52;;;;;;;;;;;;;;;9.45;63.48;101530.03;4980993;28;20389;-92
2023/05/02 00:43:49;;;;;;;;;;;;;;;9.28;64.19;101544.06;5001925;28;19989;-93
2023/05/02 00:46:38;;;;;;;;;;;;;;;9.26;64.36;101544.19;4992020;28;20302;-92
2023/05/02 00:49:15;;;;;;;;;;;;;;;9.34;64.10;101532.81;4986266;28;19922;-92
2023/05/02 00:51:43;;;;;;;;;;;;;;;9.28;63.98;101533.34;4945974;28;19925;-93
2023/05/02 00:54:11;;;;;;;;;;;;;;;9.20;63.87;101530.44;4987979;28;20369;-92
2023/05/02 00:56:38;;;;;;;;;;;;;;;9.19;63.42;101540.31;4991663;28;20384;-91
2023/05/02 00:59:04;;;;;;;;;;;;;;;9.29;62.75;101529.66;4976618;28;19926;-92
2023/05/02 01:01:59;;;;;;;;;;;;;;;9.28;62.63;101534.19;4988893;28;19930;-93
2023/05/02 01:07:50;;;;;;;;;;;;;;;9.28;61.97;101534.19;5004797;28;19952;-92
2023/05/02 01:10:16;;;;;;;;;;;;;;;9.26;61.68;101529.94;5013508;28;19920;-92
2023/05/02 01:13:04;;;;;;;;;;;;;;;9.15;61.76;101533.50;5013313;28;19937;-92
2023/05/02 01:15:40;;;;;;;;;;;;;;;9.19;62.02;101523.38;5011186;28;19992;-93
2023/05/02 01:18:14;;;;;;;;;;;;;;;9.22;61.94;101528.47;4986271;28;19936;-93
2023/05/02 01:20:52;;;;;;;;;;;;;;;9.26;61.99;101524.56;5004796;28;20017;-92
2023/05/02 01:23:35;;;;;;;;;;;;;;;9.19;61.84;101529.59;5006646;28;19926;-91
2023/05/02 01:26:30;;;;;;;;;;;;;;;9.28;61.60;101531.50;4995756;28;19910;-92
2023/05/02 01:28:59;;;;;;;;;;;;;;;9.31;61.08;101522.31;5003883;28;19922;-92
2023/05/02 01:31:35;;;;;;;;;;;;;;;9.33;60.44;101519.53;4990925;28;19994;-92
2023/05/02 01:34:02;;;;;;;;;;;;;;;9.35;59.82;101521.09;4989868;28;19992;-92
2023/05/02 01:36:37;;;;;;;;;;;;;;;9.27;59.63;101527.13;4993312;28;19925;-91
2023/05/02 01:39:03;;;;;;;;;;;;;;;9.23;59.28;101520.31;4986725;28;19922;-91
2023/05/02 01:41:33;;;;;;;;;;;;;;;9.19;58.94;101521.53;4973259;28;19944;-91
2023/05/02 01:44:00;;;;;;;;;;;;;;;9.19;58.65;101518.88;4989452;28;20009;-91
2023/05/02 01:46:26;;;;;;;;;;;;;;;9.26;59.02;101514.66;4985972;28;20410;-91
2023/05/02 01:49:11;;;;;;;;;;;;;;;9.27;59.27;101524.44;5001984;28;19964;-91
2023/05/02 01:51:49;;;;;;;;;;;;;;;9.14;60.10;101526.47;5003736;28;19929;-91
2023/05/02 01:54:15;;;;;;;;;;;;;;;9.14;60.74;101525.63;4988051;28;19926;-91
2023/05/02 01:56:45;;;;;;;;;;;;;;;9.15;60.98;101520.09;5005930;28;19933;-93
2023/05/02 01:59:17;;;;;;;;;;;;;;;9.13;61.42;101518.53;5001622;28;19992;-92
2023/05/02 02:01:46;;;;;;;;;;;;;;;9.04;61.74;101520.19;4985671;28;19976;-94
2023/05/02 02:04:14;;;;;;;;;;;;;;;8.95;62.06;101526.31;4987450;28;19976;-95
2023/05/02 02:06:49;;;;;;;;;;;;;;;8.85;62.47;101526.25;4989341;28;19917;-93
2023/05/02 02:09:22;;;;;;;;;;;;;;;8.90;62.10;101529.38;4981796;28;19999;-94
2023/05/02 02:12:27;;;;;;;;;;;;;;;9.02;61.89;101528.34;4996638;28;20027;-91
2023/05/02 02:15:29;;;;;;;;;;;;;;;8.97;61.50;101525.22;4976887;28;19933;-92
2023/05/02 02:18:00;;;;;;;;;;;;;;;8.83;61.59;101523.69;4965417;28;19926;-92
2023/05/02 02:20:26;;;;;;;;;;;;;;;8.83;61.49;101529.06;4961471;28;19923;-92
2023/05/02 02:22:52;;;;;;;;;;;;;;;8.86;61.28;101525.25;4970881;28;20013;-93
2023/05/02 02:25:18;;;;;;;;;;;;;;;8.92;61.05;101538.16;4963354;28;19964;-92
2023/05/02 02:27:51;;;;;;;;;;;;;;;8.85;61.20;101534.28;4994351;28;20371;-92
2023/05/02 02:30:20;;;;;;;;;;;;;;;8.77;61.63;101534.91;4996183;28;20143;-90
2023/05/02 02:32:48;;;;;;;;;;;;;;;8.68;61.68;101540.19;4999892;28;20619;-90
2023/05/02 02:35:14;;;;;;;;;;;;;;;8.70;61.46;101539.09;4980487;28;19917;-90
2023/05/02 02:37:43;;;;;;;;;;;;;;;8.60;61.86;101538.16;4997741;28;19984;-92
2023/05/02 02:40:12;;;;;;;;;;;;;;;8.63;61.90;101537.88;5013713;28;20327;-92
2023/05/02 02:42:44;;;;;;;;;;;;;;;8.45;62.87;101548.28;5015154;28;19960;-89
2023/05/02 02:45:28;;;;;;;;;;;;;;;8.36;63.30;101546.34;5013553;28;19945;-89
2023/05/02 02:48:12;;;;;;;;;;;;;;;8.37;63.26;101540.00;5022265;28;19968;-90
2023/05/02 02:50:52;;;;;;;;;;;;;;;8.43;63.02;101548.44;5017344;28;19922;-90
2023/05/02 02:53:20;;;;;;;;;;;;;;;8.50;62.65;101543.44;4992859;28;20026;-91
2023/05/02 02:55:50;;;;;;;;;;;;;;;8.47;62.76;101549.00;4995450;28;19929;-91
2023/05/02 03:01:22;;;;;;;;;;;;;;;8.47;62.71;101557.06;5011764;28;19928;-91
2023/05/02 03:03:48;;;;;;;;;;;;;;;8.51;62.64;101557.66;5002446;28;19932;-93
2023/05/02 03:06:14;;;;;;;;;;;;;;;8.54;62.85;101563.63;4979702;28;19905;-91
2023/05/02 03:08:43;;;;;;;;;;;;;;;8.59;62.97;101558.75;4993934;28;19928;-91
2023/05/02 03:11:10;;;;;;;;;;;;;;;8.56;62.88;101569.72;4990450;28;20040;-92
2023/05/02 03:13:36;;;;;;;;;;;;;;;8.55;62.88;101562.66;5012234;28;19929;-91
2023/05/02 03:16:21;;;;;;;;;;;;;;;8.43;62.92;101547.59;5011496;28;19922;-92
2023/05/02 03:18:47;;;;;;;;;;;;;;;8.53;62.77;101567.28;5010646;28;20343;-92
2023/05/02 03:21:24;;;;;;;;;;;;;;;8.55;62.62;101565.34;4996402;28;19922;-93
2023/05/02 03:23:50;;;;;;;;;;;;;;;8.52;62.95;101565.59;4995688;28;20391;-91
2023/05/02 03:26:16;;;;;;;;;;;;;;;8.53;62.80;101575.31;4984721;28;19939;-88
2023/05/02 03:28:46;;;;;;;;;;;;;;;8.47;62.62;101583.00;5010334;28;19918;-90
2023/05/02 03:31:16;;;;;;;;;;;;;;;8.45;62.15;101585.81;4986536;28;19927;-90
2023/05/02 03:33:42;;;;;;;;;;;;;;;8.53;61.49;101585.19;4988705;28;19918;-91
2023/05/02 03:36:08;;;;;;;;;;;;;;;8.47;61.82;101586.53;5011346;28;20345;-90
2023/05/02 03:38:36;;;;;;;;;;;;;;;8.60;61.67;101587.25;5001420;28;20368;-90
2023/05/02 03:41:03;;;;;;;;;;;;;;;8.61;61.94;101599.66;4998344;28;19928;-90
2023/05/02 03:43:29;;;;;;;;;;;;;;;8.72;61.80;101601.47;4994133;28;19925;-91
2023/05/02 03:46:00;;;;;;;;;;;;;;;8.83;61.62;101592.56;4988852;28;19925;-90
2023/05/02 03:48:27;;;;;;;;;;;;;;;8.85;61.28;101601.34;5006732;28;20036;-91
2023/05/02 03:50:54;;;;;;;;;;;;;;;8.93;61.20;101604.22;5011279;28;20451;-92
2023/05/02 03:53:22;;;;;;;;;;;;;;;8.85;61.14;101612.06;5015631;28;20034;-92
2023/05/02 03:56:00;;;;;;;;;;;;;;;8.87;61.11;101616.31;5014448;28;19937;-93
2023/05/02 03:58:26;;;;;;;;;;;;;;;9.03;60.34;101610.50;4995382;28;20016;-91
2023/05/02 04:00:55;;;;;;;;;;;;;;;9.02;59.89;101611.50;4991660;28;19929;-93
2023/05/02 04:03:25;;;;;;;;;;;;;;;9.11;59.28;101617.94;5014024;28;19921;-92
2023/05/02 04:06:11;;;;;;;;;;;;;;;9.16;59.25;101615.72;5012985;28;19926;-90
2023/05/02 04:09:06;;;;;;;;;;;;;;;9.20;59.29;101616.28;4999621;28;20028;-91
2023/05/02 04:11:32;;;;;;;;;;;;;;;9.30;59.29;101617.25;4991586;28;19922;-87
2023/05/02 04:13:59;;;;;;;;;;;;;;;9.37;59.13;101620.28;5009139;28;19932;-88
2023/05/02 04:16:25;;;;;;;;;;;;;;;9.26;59.10;101616.63;4986234;28;20016;-88
2023/05/02 04:18:50;;;;;;;;;;;;;;;9.45;58.64;101618.63;4997792;28;20355;-88
2023/05/02 04:21:16;;;;;;;;;;;;;;;9.47;58.38;101621.19;4996338;28;19979;-87
2023/05/02 04:23:42;;;;;;;;;;;;;;;9.46;58.18;101625.69;4994521;28;19932;-89
2023/05/02 04:26:36;;;;;;;;;;;;;;;9.60;57.93;101613.78;5000785;28;19929;-92
2023/05/02 04:29:13;;;;;;;;;;;;;;;9.69;57.50;101621.06;5004056;28;19921;-95
2023/05/02 04:31:44;;;;;;;;;;;;;;;9.86;57.29;101613.38;5012493;28;20012;-92
2023/05/02 04:34:10;;;;;;;;;;;;;;;9.95;56.55;101617.97;5009180;28;20015;-91
2023/05/02 04:36:36;;;;;;;;;;;;;;;9.99;56.46;101611.31;4987552;28;19917;-91
2023/05/02 04:39:06;;;;;;;;;;;;;;;10.06;56.34;101612.47;4995380;28;20361;-93
2023/05/02 04:41:33;;;;;;;;;;;;;;;10.29;56.05;101613.16;5009544;28;19944;-90
2023/05/02 04:44:00;;;;;;;;;;;;;;;11.31;53.85;101617.47;4984922;28;19921;-88
2023/05/02 04:46:27;;;;;;;;;;;;;;;12.95;49.74;101620.56;4995691;28;19915;-91
2023/05/02 04:48:53;;;;;;;;;;;;;;;14.19;46.75;101611.53;4972784;28;19925;-89
2023/05/02 04:51:38;;;;;;;;;;;;;;;14.71;44.28;101606.03;5000614;28;19956;-90
2023/05/02 04:54:09;;;;;;;;;;;;;;;15.74;42.55;101601.03;5001919;28;19956;-91
2023/05/02 04:56:36;;;;;;;;;;;;;;;16.31;40.78;101610.03;5005638;28;19926;-91
2023/05/02 04:59:03;;;;;;;;;;;;;;;16.71;39.82;101611.69;4976401;28;19972;-92
2023/05/02 05:01:30;;;;;;;;;;;;;;;16.80;38.57;101617.97;4985604;28;19926;-92
2023/05/02 05:04:00;;;;;;;;;;;;;;;16.98;37.85;101623.13;4988971;28;19949;-92
2023/05/02 05:06:27;;;;;;;;;;;;;;;17.12;37.82;101629.66;4988686;28;19933;-91
2023/05/02 05:08:54;;;;;;;;;;;;;;;17.35;38.36;101633.22;4998488;28;19960;-92
2023/05/02 05:11:32;;;;;;;;;;;;;;;17.65;38.15;101620.56;4993739;28;20028;-92
2023/05/02 05:14:03;;;;;;;;;;;;;;;17.87;38.11;101626.16;4999483;28;19930;-91
2023/05/02 05:16:40;;;;;;;;;;;;;;;18.04;37.30;101627.66;5000592;28;19921;-90
2023/05/02 05:19:06;;;;;;;;;;;;;;;18.19;36.98;101624.97;5006788;28;19963;-90
2023/05/02 05:21:33;;;;;;;;;;;;;;;18.35;36.92;101624.78;4992186;28;19964;-90
2023/05/02 05:24:00;;;;;;;;;;;;;;;18.46;36.46;101626.16;4991285;28;20372;-94
2023/05/02 05:26:27;;;;;;;;;;;;;;;18.52;36.17;101624.56;4992873;28;19940;-92
2023/05/02 05:28:52;;;;;;;;;;;;;;;18.73;36.21;101631.94;4992951;28;20003;-92
2023/05/02 05:31:19;;;;;;;;;;;;;;;18.90;35.96;101632.59;4998965;28;19945;-91
2023/05/02 05:33:46;;;;;;;;;;;;;;;18.90;35.36;101644.34;4997819;28;19975;-90
2023/05/02 05:36:17;;;;;;;;;;;;;;;18.97;34.58;101641.69;4994907;28;19957;-93
2023/05/02 05:38:46;;;;;;;;;;;;;;;19.14;34.88;101645.00;4980674;28;20361;-92
2023/05/02 05:41:11;;;;;;;;;;;;;;;19.19;34.66;101646.09;4972044;28;19926;-91
2023/05/02 05:43:38;;;;;;;;;;;;;;;19.45;34.77;101647.41;4989261;28;19945;-92
2023/05/02 05:46:08;;;;;;;;;;;;;;;19.71;33.54;101646.81;4989155;28;19968;-91
2023/05/02 05:48:34;;;;;;;;;;;;;;;20.00;32.66;101651.25;4995925;28;20346;-92
2023/05/02 05:51:04;;;;;;;;;;;;;;;20.19;32.27;101655.16;5011700;28;19921;-92
2023/05/02 05:53:30;;;;;;;;;;;;;;;20.37;31.87;101651.91;4992974;28;20011;-91
2023/05/02 05:55:58;;;;;;;;;;;;;;;20.50;31.28;101650.28;4995230;28;20349;-90
2023/05/02 05:58:25;;;;;;;;;;;;;;;20.63;31.14;101650.38;4990577;28;19932;-87
2023/05/02 06:00:50;;;;;;;;;;;;;;;20.75;31.16;101647.91;4999168;28;19921;-86
2023/05/02 06:03:16;;;;;;;;;;;;;;;20.87;30.50;101649.00;5007503;28;19946;-86
2023/05/02 06:05:41;;;;;;;;;;;;;;;20.86;30.99;101655.50;5005394;28;19968;-86
2023/05/02 06:08:10;;;;;;;;;;;;;;;20.87;31.94;101647.09;5027605;28;19917;-86
2023/05/02 06:10:40;;;;;;;;;;;;;;;20.91;31.65;101654.88;5021813;28;20034;-87
2023/05/02 06:13:07;;;;;;;;;;;;;;;21.00;31.68;101661.84;5010523;28;19931;-88
2023/05/02 06:15:34;;;;;;;;;;;;;;;21.13;32.52;101650.97;5024087;28;19922;-87
2023/05/02 06:17:59;;;;;;;;;;;;;;;21.12;32.38;101656.63;5002043;28;20000;-90
2023/05/02 06:20:25;;;;;;;;;;;;;;;20.86;32.75;101645.44;4996451;28;20420;-88
2023/05/02 06:22:50;;;;;;;;;;;;;;;21.18;32.51;101650.34;4986735;28;19922;-88
2023/05/02 06:25:15;;;;;;;;;;;;;;;21.21;32.41;101658.97;4993281;28;19929;-90
2023/05/02 06:27:41;;;;;;;;;;;;;;;21.55;31.94;101654.41;5002907;28;19922;-86
2023/05/02 06:30:06;;;;;;;;;;;;;;;21.85;30.66;101654.00;5008258;28;19922;-87
2023/05/02 06:32:32;;;;;;;;;;;;;;;21.97;30.09;101663.25;4988120;28;20307;-86
2023/05/02 06:34:59;;;;;;;;;;;;;;;21.43;30.39;101667.88;4992693;28;19933;-89
2023/05/02 06:37:24;;;;;;;;;;;;;;;20.81;31.40;101669.81;5015212;28;19927;-87
2023/05/02 06:39:54;;;;;;;;;;;;;;;20.59;31.72;101665.50;4991415;28;20281;-90
2023/05/02 06:42:19;;;;;;;;;;;;;;;20.10;32.39;101671.91;4988859;28;19922;-89
2023/05/02 06:44:46;;;;;;;;;;;;;;;20.16;33.57;101665.66;4997581;28;19937;-86
2023/05/02 06:47:11;;;;;;;;;;;;;;;20.51;33.68;101679.25;4999730;28;19925;-90
2023/05/02 06:49:37;;;;;;;;;;;;;;;20.51;34.32;101679.25;4997721;28;20368;-87
2023/05/02 06:52:03;;;;;;;;;;;;;;;20.83;34.01;101678.59;4993454;28;19989;-88
2023/05/02 06:54:31;;;;;;;;;;;;;;;20.86;33.06;101675.50;4992706;28;20446;-87
2023/05/02 06:57:00;;;;;;;;;;;;;;;21.04;34.42;101682.25;5006968;28;20262;-88
2023/05/02 06:59:28;;;;;;;;;;;;;;;20.95;34.24;101680.75;5012242;28;19936;-88
2023/05/02 07:01:54;;;;;;;;;;;;;;;21.33;34.25;101681.09;5011241;28;19948;-89
2023/05/02 07:04:20;;;;;;;;;;;;;;;21.16;34.31;101686.06;4988706;28;19921;-88
2023/05/02 07:06:45;;;;;;;;;;;;;;;21.26;35.29;101696.66;4972904;28;20402;-86
2023/05/02 07:09:10;;;;;;;;;;;;;;;21.63;35.08;101700.75;5009557;28;20418;-86
2023/05/02 07:11:36;;;;;;;;;;;;;;;21.62;34.94;101704.50;4994616;28;20018;-86
2023/05/02 07:14:02;;;;;;;;;;;;;;;21.30;36.43;101708.84;4976797;28;19921;-88
2023/05/02 07:16:29;;;;;;;;;;;;;;;21.40;35.81;101703.84;4991769;28;20115;-87
2023/05/02 07:18:55;;;;;;;;;;;;;;;21.46;37.00;101702.19;5004467;28;19921;-88
2023/05/02 07:21:20;;;;;;;;;;;;;;;21.71;36.70;101708.72;5005711;28;20330;-90
2023/05/02 07:23:46;;;;;;;;;;;;;;;22.16;35.54;101701.78;4990676;28;20427;-90
2023/05/02 07:26:14;;;;;;;;;;;;;;;21.91;35.54;101703.28;5020372;28;19960;-91
2023/05/02 07:28:40;;;;;;;;;;;;;;;22.05;34.74;101706.81;5012033;28;20365;-91
2023/05/02 07:31:11;;;;;;;;;;;;;;;22.65;30.55;101708.66;4995837;28;19937;-93
2023/05/02 07:33:41;;;;;;;;;;;;;;;23.26;28.86;101705.44;4998767;28;19964;-90
2023/05/02 07:36:13;;;;;;;;;;;;;;;23.70;27.04;101711.91;4998688;28;19980;-88
2023/05/02 07:38:43;;;;;;;;;;;;;;;23.78;25.56;101714.41;5005236;28;20040;-87
2023/05/02 07:41:08;;;;;;;;;;;;;;;24.06;23.20;101715.03;5009495;28;20352;-86
2023/05/02 07:43:33;;;;;;;;;;;;;;;23.84;24.69;101717.34;4983629;28;20008;-90
2023/05/02 07:46:05;;;;;;;;;;;;;;;24.04;24.02;101701.50;5008896;28;19930;-87
2023/05/02 07:48:31;;;;;;;;;;;;;;;24.60;23.39;101721.69;5008980;28;20032;-86
2023/05/02 07:51:04;;;;;;;;;;;;;;;24.44;23.18;101718.47;5007962;28;20021;-86
2023/05/02 07:53:31;;;;;;;;;;;;;;;24.43;23.33;101715.94;4984583;28;19920;-86
2023/05/02 07:55:56;;;;;;;;;;;;;;;24.43;23.24;101721.44;5011045;28;19932;-85
2023/05/02 07:58:27;;;;;;;;;;;;;;;23.67;23.74;101720.59;5016885;28;19913;-87
2023/05/02 08:00:55;;;;;;;;;;;;;;;23.62;23.61;101716.81;5011705;28;19948;-86
2023/05/02 08:03:22;;;;;;;;;;;;;;;24.00;24.07;101723.09;4994592;28;19925;-88
2023/05/02 08:05:54;;;;;;;;;;;;;;;24.57;22.95;101717.50;4995743;28;20393;-91
2023/05/02 08:08:21;;;;;;;;;;;;;;;24.79;22.73;101719.78;4991004;28;19925;-90
2023/05/02 08:10:50;;;;;;;;;;;;;;;25.10;21.50;101710.50;4993698;28;19961;-90
2023/05/02 08:13:18;;;;;;;;;;;;;;;25.62;20.53;101712.75;5009836;28;20309;-89
2023/05/02 08:15:44;;;;;;;;;;;;;;;25.88;20.24;101717.00;5010100;28;19921;-88
2023/05/02 08:18:10;;;;;;;;;;;;;;;25.65;20.06;101718.59;4980974;28;19921;-87
2023/05/02 08:20:35;;;;;;;;;;;;;;;25.77;20.29;101724.13;4984361;28;19948;-87
2023/05/02 08:23:02;;;;;;;;;;;;;;;25.72;19.98;101729.53;4992191;28;19924;-87
2023/05/02 08:25:29;;;;;;;;;;;;;;;25.91;19.94;101727.53;5010183;28;19949;-85
2023/05/02 08:27:58;;;;;;;;;;;;;;;26.47;19.01;101728.88;4988569;28;19930;-85
2023/05/02 08:30:25;;;;;;;;;;;;;;;26.40;18.40;101721.81;5014632;28;19910;-88
2023/05/02 08:32:50;;;;;;;;;;;;;;;26.46;20.24;101718.94;5021691;28;19917;-87
2023/05/02 08:35:16;;;;;;;;;;;;;;;26.63;20.14;101726.50;5016850;28;19936;-87
2023/05/02 08:37:41;;;;;;;;;;;;;;;26.63;20.93;101724.56;5003366;28;19917;-89
2023/05/02 08:40:09;;;;;;;;;;;;;;;26.69;20.08;101723.59;4992967;28;19956;-86
2023/05/02 08:42:34;;;;;;;;;;;;;;;27.54;19.21;101712.88;4976818;28;19932;-87
2023/05/02 08:45:01;;;;;;;;;;;;;;;27.66;19.23;101721.09;5010529;28;20012;-86
2023/05/02 08:47:26;;;;;;;;;;;;;;;28.53;18.94;101725.25;5003065;28;20466;-88
2023/05/02 08:49:56;;;;;;;;;;;;;;;27.97;18.65;101717.75;4993235;28;20015;-87
2023/05/02 08:52:21;;;;;;;;;;;;;;;28.32;18.27;101716.63;5004516;28;20019;-86
2023/05/02 08:54:50;;;;;;;;;;;;;;;28.09;18.55;101723.19;4993502;28;19922;-87
2023/05/02 08:57:15;;;;;;;;;;;;;;;29.69;17.13;101717.72;4993792;28;19918;-88
2023/05/02 08:59:42;;;;;;;;;;;;;;;29.45;17.06;101720.81;5017284;28;19925;-88
2023/05/02 09:02:19;;;;;;;;;;;;;;;30.73;17.11;101721.78;5023769;28;19985;-85
2023/05/02 09:04:44;;;;;;;;;;;;;;;30.68;16.24;101716.22;5003199;28;19999;-85
2023/05/02 09:07:10;;;;;;;;;;;;;;;31.44;15.73;101721.19;4974560;28;20390;-86
2023/05/02 09:09:36;;;;;;;;;;;;;;;31.20;16.45;101718.06;4992974;28;19971;-86
2023/05/02 09:12:03;;;;;;;;;;;;;;;32.95;15.78;101722.38;4992960;28;19918;-88
2023/05/02 09:14:29;;;;;;;;;;;;;;;32.69;15.50;101726.41;4992939;28;19959;-86
2023/05/02 09:16:57;;;;;;;;;;;;;;;31.84;16.10;101715.94;5010113;28;19979;-87
2023/05/02 09:19:26;;;;;;;;;;;;;;;31.85;16.14;101717.63;4976330;28;20008;-88
2023/05/02 09:21:51;;;;;;;;;;;;;;;31.47;17.51;101725.41;4971892;28;19921;-86
2023/05/02 09:24:17;;;;;;;;;;;;;;;30.25;18.25;101724.56;5008621;28;19940;-88
2023/05/02 09:26:43;;;;;;;;;;;;;;;31.75;15.53;101718.47;4991729;28;19921;-84
2023/05/02 09:29:09;;;;;;;;;;;;;;;32.21;16.92;101717.59;4990883;28;19962;-86
2023/05/02 09:31:36;;;;;;;;;;;;;;;31.62;17.29;101708.72;4991668;28;19917;-86
2023/05/02 09:34:19;;;;;;;;;;;;;;;33.12;16.39;101715.63;4992086;28;20019;-86
2023/05/02 09:36:52;;;;;;;;;;;;;;;32.39;18.12;101715.03;5006991;28;20016;-88
2023/05/02 09:39:23;;;;;;;;;;;;;;;32.95;17.48;101714.03;4992544;28;19948;-88
2023/05/02 09:41:49;;;;;;;;;;;;;;;32.25;16.96;101710.38;4977829;28;20016;-89
2023/05/02 09:44:22;;;;;;;;;;;;;;;32.78;16.79;101719.13;4992635;28;20964;-87
2023/05/02 09:46:51;;;;;;;;;;;;;;;32.13;17.32;101719.84;4992760;28;20225;-86
2023/05/02 09:49:39;;;;;;;;;;;;;;;33.08;15.36;101711.75;5011241;28;19964;-90
2023/05/02 09:52:16;;;;;;;;;;;;;;;33.33;15.55;101710.75;5009958;28;19989;-93
2023/05/02 09:54:42;;;;;;;;;;;;;;;33.69;16.65;101716.91;4992343;28;19981;-87
2023/05/02 09:57:09;;;;;;;;;;;;;;;32.52;18.41;101715.59;5007404;28;19928;-90
2023/05/02 09:59:35;;;;;;;;;;;;;;;32.68;17.25;101708.84;5009792;28;19929;-89
2023/05/02 10:02:06;;;;;;;;;;;;;;;33.15;17.20;101712.25;5009195;28;19936;-88
2023/05/02 10:04:34;;;;;;;;;;;;;;;33.53;16.58;101713.41;5008884;28;20338;-90
2023/05/02 10:07:02;;;;;;;;;;;;;;;32.78;17.95;101705.22;5008566;28;20431;-90
2023/05/02 10:09:44;;;;;;;;;;;;;;;31.12;20.43;101715.84;5011575;28;20029;-92
2023/05/02 10:12:17;;;;;;;;;;;;;;;32.00;19.19;101706.50;5011972;28;19940;-89
2023/05/02 10:14:45;;;;;;;;;;;;;;;32.85;18.44;101708.50;4994613;28;19956;-90
2023/05/02 10:17:12;;;;;;;;;;;;;;;32.37;20.08;101713.66;4979288;28;20319;-90
2023/05/02 10:19:46;;;;;;;;;;;;;;;32.54;19.38;101716.97;5010301;28;20417;-93
2023/05/02 10:22:13;;;;;;;;;;;;;;;31.84;20.61;101708.41;4993644;28;19981;-91
2023/05/02 10:24:39;;;;;;;;;;;;;;;31.88;20.79;101711.50;5012702;28;19971;-89
2023/05/02 10:27:06;;;;;;;;;;;;;;;32.25;19.47;101710.38;4999514;28;20024;-88
2023/05/02 10:29:32;;;;;;;;;;;;;;;32.51;18.79;101708.38;4998703;28;19917;-89
2023/05/02 10:32:01;;;;;;;;;;;;;;;31.15;18.71;101712.50;5012533;28;20317;-90
2023/05/02 10:34:32;;;;;;;;;;;;;;;30.54;19.66;101720.59;4995309;28;19949;-88
2023/05/02 10:37:02;;;;;;;;;;;;;;;31.18;19.71;101711.97;4993431;28;20386;-89
2023/05/02 10:39:33;;;;;;;;;;;;;;;31.17;19.43;101707.53;4996492;28;20390;-89
2023/05/02 10:42:02;;;;;;;;;;;;;;;31.02;19.67;101704.69;5016564;28;19917;-90
2023/05/02 10:44:34;;;;;;;;;;;;;;;31.43;18.88;101699.25;4998208;28;20017;-89
2023/05/02 10:47:18;;;;;;;;;;;;;;;31.49;17.58;101709.25;4992914;28;19921;-89
2023/05/02 10:49:51;;;;;;;;;;;;;;;29.94;19.68;101706.84;4995348;28;19922;-89
2023/05/02 10:52:33;;;;;;;;;;;;;;;29.99;19.08;101709.69;4996412;28;19917;-90
2023/05/02 10:55:16;;;;;;;;;;;;;;;29.07;20.87;101703.25;5016032;28;19929;-88
2023/05/02 10:58:00;;;;;;;;;;;;;;;27.66;22.13;101705.34;5001665;28;19925;-90
2023/05/02 11:00:29;;;;;;;;;;;;;;;26.71;23.12;101704.91;5012826;28;19925;-91
2023/05/02 11:02:58;;;;;;;;;;;;;;;26.99;23.22;101706.00;4996917;28;19921;-91
2023/05/02 11:05:25;;;;;;;;;;;;;;;26.77;22.41;101702.25;4980671;28;19941;-91
2023/05/02 11:08:15;;;;;;;;;;;;;;;26.68;22.69;101705.38;4997050;28;19922;-90
2023/05/02 11:10:41;;;;;;;;;;;;;;;26.56;21.79;101712.84;4979534;28;20064;-89
2023/05/02 11:13:09;;;;;;;;;;;;;;;25.96;22.76;101718.56;5010558;28;19921;-88
2023/05/02 11:15:40;;;;;;;;;;;;;;;25.74;22.87;101715.53;4983824;28;19926;-89
2023/05/02 11:18:06;;;;;;;;;;;;;;;25.53;24.00;101711.41;4995669;28;19929;-89
2023/05/02 11:20:32;;;;;;;;;;;;;;;25.44;23.04;101702.63;5001305;28;19921;-90
2023/05/02 11:23:25;;;;;;;;;;;;;;;25.05;23.30;101697.44;4993503;28;20350;-93
2023/05/02 11:25:59;;;;;;;;;;;;;;;24.69;23.47;101712.06;4999781;28;19925;-91
2023/05/02 11:28:28;;;;;;;;;;;;;;;24.40;24.28;101697.16;4981270;28;20067;-89
2023/05/02 11:30:53;;;;;;;;;;;;;;;24.53;23.91;101704.44;4992295;28;19922;-90
2023/05/02 11:33:24;;;;;;;;;;;;;;;24.25;23.77;101700.25;4987384;28;19984;-90
2023/05/02 11:35:49;;;;;;;;;;;;;;;23.91;25.67;101697.00;4972610;28;20317;-90
2023/05/02 11:38:15;;;;;;;;;;;;;;;23.72;25.10;101701.56;4996192;28;19922;-90
2023/05/02 11:40:48;;;;;;;;;;;;;;;23.80;25.34;101705.94;5001313;28;19921;-91
2023/05/02 11:43:14;;;;;;;;;;;;;;;22.85;26.22;101708.56;4993632;28;20033;-90
2023/05/02 11:45:41;;;;;;;;;;;;;;;23.14;25.91;101702.56;4992545;28;19983;-91
2023/05/02 11:48:08;;;;;;;;;;;;;;;23.04;25.47;101701.34;4999806;28;19921;-88
2023/05/02 11:50:46;;;;;;;;;;;;;;;22.49;27.31;101704.47;5009707;28;19992;-89
2023/05/02 11:53:21;;;;;;;;;;;;;;;22.65;27.40;101700.44;5012020;28;20052;-87
2023/05/02 11:56:13;;;;;;;;;;;;;;;22.49;26.97;101699.00;5014697;28;19976;-88
2023/05/02 11:58:43;;;;;;;;;;;;;;;22.40;26.92;101701.13;5013143;28;19968;-86
2023/05/02 12:01:12;;;;;;;;;;;;;;;22.45;28.62;101701.34;5013129;28;19948;-89
2023/05/02 12:03:41;;;;;;;;;;;;;;;22.46;27.10;101700.28;5095268;22;19965;-89
2023/05/02 12:06:32;;;;;;;;;;;;;;;22.43;27.47;101699.84;4998479;28;20086;-92
2023/05/02 12:09:07;;;;;;;;;;;;;;;22.31;26.87;101697.78;5004605;28;19922;-89
2023/05/02 12:11:34;;;;;;;;;;;;;;;22.19;28.39;101709.56;4993259;28;19948;-90
2023/05/02 12:14:04;;;;;;;;;;;;;;;22.25;25.32;101708.75;5014000;28;19913;-92
2023/05/02 12:16:30;;;;;;;;;;;;;;;21.81;25.90;101707.47;5011552;28;19921;-91
2023/05/02 12:18:59;;;;;;;;;;;;;;;22.02;27.24;101715.47;5012061;28;19929;-91
2023/05/02 12:21:28;;;;;;;;;;;;;;;21.83;27.37;101706.22;4992613;28;20032;-90
2023/05/02 12:23:54;;;;;;;;;;;;;;;21.56;25.07;101705.34;4976781;28;19954;-90
2023/05/02 12:26:20;;;;;;;;;;;;;;;21.78;25.79;101703.25;4977977;28;20413;-90
2023/05/02 12:28:53;;;;;;;;;;;;;;;21.76;26.83;101686.22;4993387;28;19924;-88
2023/05/02 12:31:18;;;;;;;;;;;;;;;21.91;27.34;101697.81;4991216;28;20342;-91
2023/05/02 12:33:44;;;;;;;;;;;;;;;21.76;27.23;101688.94;5001779;28;19937;-91
2023/05/02 12:36:12;;;;;;;;;;;;;;;21.60;25.58;101690.19;5001315;28;19972;-92
2023/05/02 12:38:38;;;;;;;;;;;;;;;21.33;26.30;101693.91;5005634;28;20031;-90
2023/05/02 12:41:03;;;;;;;;;;;;;;;20.81;28.38;101686.19;5026835;28;19965;-90
2023/05/02 12:43:43;;;;;;;;;;;;;;;20.82;28.62;101682.41;4993345;28;19944;-92
2023/05/02 12:46:09;;;;;;;;;;;;;;;20.93;27.29;101683.72;5010518;28;19956;-91
2023/05/02 12:48:36;;;;;;;;;;;;;;;20.91;27.21;101674.00;4981346;28;19922;-91
2023/05/02 12:51:01;;;;;;;;;;;;;;;20.78;27.32;101683.84;4990229;28;20032;-89
2023/05/02 12:53:42;;;;;;;;;;;;;;;20.66;27.57;101680.84;4980958;28;19977;-92
2023/05/02 12:56:07;;;;;;;;;;;;;;;20.76;27.25;101683.22;5002710;28;19925;-90
2023/05/02 12:58:46;;;;;;;;;;;;;;;20.71;27.81;101682.16;5007410;28;20312;-88
2023/05/02 13:01:15;;;;;;;;;;;;;;;20.50;27.11;101683.06;4984124;28;19906;-88